createdAt,value
2022-08-23T00:01:44.583Z,1.42
2022-08-23T00:04:19.547Z,1.58
2022-08-23T00:06:51.136Z,1.80
2022-08-23T00:09:20.181Z,1.70
2022-08-23T00:11:51.027Z,1.67
2022-08-23T00:14:22.398Z,1.98
2022-08-23T00:16:51.472Z,1.75
2022-08-23T00:19:21.374Z,1.58
2022-08-23T00:21:53.044Z,1.40
2022-08-23T00:24:21.569Z,1.58
2022-08-23T00:26:54.639Z,2.08
2022-08-23T00:29:25.935Z,1.40
2022-08-23T00:31:54.534Z,1.60
2022-08-23T00:34:22.779Z,1.65
2022-08-23T00:36:52.963Z,1.85
2022-08-23T00:39:22.335Z,1.75
2022-08-23T00:41:51.917Z,1.83
2022-08-23T00:44:42.697Z,1.95
2022-08-23T00:47:31.760Z,1.60
2022-08-23T00:50:23.912Z,1.80
2022-08-23T00:52:59.514Z,2.05
2022-08-23T00:55:29.049Z,1.60
2022-08-23T00:57:59.078Z,1.70
2022-08-23T01:00:28.048Z,1.73
2022-08-23T01:02:57.109Z,1.88
2022-08-23T01:05:31.240Z,1.58
2022-08-23T01:08:01.538Z,1.55
2022-08-23T01:10:34.770Z,1.70
2022-08-23T01:13:10.162Z,1.77
2022-08-23T01:15:42.590Z,1.63
2022-08-23T01:18:14.130Z,1.80
2022-08-23T01:20:47.014Z,1.60
2022-08-23T01:23:37.388Z,1.58
2022-08-23T01:26:07.139Z,1.40
2022-08-23T01:28:37.565Z,2.13
2022-08-23T01:31:06.529Z,1.60
2022-08-23T01:33:35.130Z,1.65
2022-08-23T01:36:04.502Z,1.58
2022-08-23T01:38:40.342Z,1.95
2022-08-23T01:41:09.333Z,1.60
2022-08-23T01:43:38.117Z,2.17
2022-08-23T01:46:09.987Z,1.40
2022-08-23T01:48:39.066Z,1.77
2022-08-23T01:51:07.813Z,1.70
2022-08-23T01:53:37.174Z,1.60
2022-08-23T01:56:08.168Z,1.77
2022-08-23T01:58:38.725Z,1.67
2022-08-23T02:01:07.373Z,1.77
2022-08-23T02:03:37.874Z,1.60
2022-08-23T02:06:07.301Z,1.45
2022-08-23T02:08:52.662Z,1.50
2022-08-23T02:11:27.127Z,1.70
2022-08-23T02:13:58.706Z,2.13
2022-08-23T02:16:33.656Z,1.77
2022-08-23T02:19:02.638Z,1.20
2022-08-23T02:21:32.299Z,1.75
2022-08-23T02:24:01.042Z,1.38
2022-08-23T02:26:31.425Z,1.60
2022-08-23T02:28:59.932Z,1.55
2022-08-23T02:31:28.059Z,2.10
2022-08-23T02:33:56.836Z,1.80
2022-08-23T02:36:26.926Z,1.30
2022-08-23T02:38:55.748Z,1.30
2022-08-23T02:41:24.515Z,1.60
2022-08-23T02:43:55.341Z,1.60
2022-08-23T02:46:25.153Z,1.60
2022-08-23T02:48:54.217Z,1.70
2022-08-23T02:51:22.967Z,1.90
2022-08-23T02:53:51.549Z,1.90
2022-08-23T02:56:22.342Z,1.70
2022-08-23T02:58:54.404Z,1.50
2022-08-23T03:01:29.031Z,1.70
2022-08-23T03:04:03.583Z,1.45
2022-08-23T03:06:32.147Z,1.60
2022-08-23T03:09:00.850Z,1.35
2022-08-23T03:11:29.365Z,1.45
2022-08-23T03:13:57.666Z,1.52
2022-08-23T03:16:27.288Z,2.05
2022-08-23T03:18:56.235Z,1.35
2022-08-23T03:21:24.637Z,1.85
2022-08-23T03:23:53.225Z,1.90
2022-08-23T03:26:21.962Z,1.90
2022-08-23T03:28:50.039Z,1.63
2022-08-23T03:31:18.869Z,1.90
2022-08-23T03:34:06.415Z,1.77
2022-08-23T03:36:35.852Z,1.80
2022-08-23T03:39:06.050Z,1.98
2022-08-23T03:41:34.240Z,1.50
2022-08-23T03:44:02.409Z,1.58
2022-08-23T03:46:34.170Z,1.90
2022-08-23T03:49:04.574Z,1.98
2022-08-23T03:51:53.030Z,1.70
2022-08-23T03:54:22.693Z,1.75
2022-08-23T03:56:54.597Z,1.70
2022-08-23T03:59:23.969Z,1.80
2022-08-23T04:01:52.208Z,1.40
2022-08-23T04:04:21.996Z,2.00
2022-08-23T04:07:25.912Z,1.67
2022-08-23T04:09:57.355Z,1.73
2022-08-23T04:12:28.635Z,1.77
2022-08-23T04:14:57.378Z,1.90
2022-08-23T04:17:26.196Z,1.95
2022-08-23T04:19:56.697Z,1.77
2022-08-23T04:22:24.939Z,1.90
2022-08-23T04:24:53.903Z,1.60
2022-08-23T04:27:22.528Z,1.75
2022-08-23T04:29:51.056Z,1.40
2022-08-23T04:32:28.474Z,1.50
2022-08-23T04:35:00.072Z,1.70
2022-08-23T04:37:28.477Z,2.28
2022-08-23T04:40:15.009Z,1.80
2022-08-23T04:42:44.165Z,1.83
2022-08-23T04:45:14.150Z,1.95
2022-08-23T04:47:45.928Z,1.75
2022-08-23T04:50:15.410Z,2.03
2022-08-23T04:53:08.115Z,1.73
2022-08-23T04:55:42.283Z,1.70
2022-08-23T04:58:10.573Z,1.65
2022-08-23T05:00:50.830Z,2.65
2022-08-23T05:03:22.340Z,1.55
2022-08-23T05:05:53.425Z,1.70
2022-08-23T05:08:24.243Z,2.08
2022-08-23T05:10:52.733Z,1.58
2022-08-23T05:13:21.038Z,1.85
2022-08-23T05:15:52.571Z,1.85
2022-08-23T05:18:23.083Z,2.15
2022-08-23T05:20:53.924Z,1.67
2022-08-23T05:23:23.526Z,1.77
2022-08-23T05:26:06.224Z,1.67
2022-08-23T05:28:39.891Z,1.80
2022-08-23T05:31:11.781Z,1.90
2022-08-23T05:33:53.444Z,2.05
2022-08-23T05:36:48.393Z,1.98
2022-08-23T05:39:28.751Z,1.80
2022-08-23T05:42:06.070Z,2.05
2022-08-23T05:44:36.346Z,2.35
2022-08-23T05:47:10.468Z,2.17
2022-08-23T05:49:46.126Z,1.80
2022-08-23T05:52:16.030Z,2.17
2022-08-23T05:54:45.297Z,1.90
2022-08-23T05:57:35.675Z,1.90
2022-08-23T06:00:05.160Z,2.47
2022-08-23T06:02:33.548Z,2.30
2022-08-23T06:05:01.662Z,2.22
2022-08-23T06:07:31.221Z,1.98
2022-08-23T06:09:59.356Z,2.22
2022-08-23T06:12:27.691Z,2.42
2022-08-23T06:14:55.848Z,2.05
2022-08-23T06:17:24.186Z,2.22
2022-08-23T06:19:52.423Z,1.95
2022-08-23T06:22:27.081Z,1.90
2022-08-23T06:24:56.593Z,2.17
2022-08-23T06:27:42.364Z,2.25
2022-08-23T06:30:13.142Z,1.95
2022-08-23T06:32:47.331Z,2.05
2022-08-23T06:35:38.727Z,2.30
2022-08-23T06:38:24.619Z,2.08
2022-08-23T06:41:14.623Z,2.38
2022-08-23T06:43:51.626Z,2.13
2022-08-23T06:46:24.085Z,2.00
2022-08-23T06:48:53.520Z,1.83
2022-08-23T06:51:26.526Z,2.10
2022-08-23T06:54:20.540Z,2.05
2022-08-23T06:57:08.151Z,2.40
2022-08-23T07:00:10.575Z,2.00
2022-08-23T07:02:57.374Z,2.08
2022-08-23T07:06:01.600Z,1.80
2022-08-23T07:08:32.725Z,1.98
2022-08-23T07:11:01.122Z,2.17
2022-08-23T07:13:30.792Z,1.90
2022-08-23T07:16:00.159Z,2.13
2022-08-23T07:18:28.938Z,2.00
2022-08-23T07:20:58.613Z,2.00
2022-08-23T07:23:27.259Z,1.98
2022-08-23T07:25:56.545Z,2.20
2022-08-23T07:28:28.912Z,2.00
2022-08-23T07:31:14.472Z,2.15
2022-08-23T07:33:44.525Z,1.92
2022-08-23T07:36:18.932Z,1.63
2022-08-23T07:38:47.923Z,1.70
2022-08-23T07:41:17.879Z,1.65
2022-08-23T07:43:46.566Z,1.73
2022-08-23T07:46:17.453Z,2.05
2022-08-23T07:49:00.752Z,1.70
2022-08-23T07:51:35.999Z,1.70
2022-08-23T07:54:06.864Z,2.13
2022-08-23T07:56:38.745Z,2.20
2022-08-23T07:59:18.177Z,2.15
2022-08-23T08:02:06.024Z,2.10
2022-08-23T08:04:35.702Z,1.90
2022-08-23T08:07:18.880Z,1.90
2022-08-23T08:09:52.379Z,2.05
2022-08-23T08:12:20.885Z,2.20
2022-08-23T08:14:51.455Z,2.10
2022-08-23T08:17:27.503Z,2.47
2022-08-23T08:20:14.076Z,1.48
2022-08-23T08:23:00.540Z,2.17
2022-08-23T08:25:30.901Z,1.75
2022-08-23T08:27:59.792Z,1.92
2022-08-23T08:30:28.414Z,1.70
2022-08-23T08:32:58.039Z,1.67
2022-08-23T08:35:26.724Z,1.88
2022-08-23T08:37:55.136Z,2.30
2022-08-23T08:40:31.454Z,2.17
2022-08-23T08:43:11.388Z,1.75
2022-08-23T08:45:58.664Z,2.00
2022-08-23T08:48:31.032Z,1.90
2022-08-23T08:51:04.110Z,1.55
2022-08-23T08:53:37.486Z,2.33
2022-08-23T08:56:18.599Z,2.33
2022-08-23T08:58:52.274Z,1.88
2022-08-23T09:01:23.679Z,1.67
2022-08-23T09:03:54.834Z,2.20
2022-08-23T09:06:28.928Z,2.50
2022-08-23T09:09:14.150Z,1.67
2022-08-23T09:11:56.589Z,2.05
2022-08-23T09:14:52.755Z,1.92
2022-08-23T09:17:27.522Z,2.20
2022-08-23T09:20:02.137Z,1.77
2022-08-23T09:22:38.119Z,2.08
2022-08-23T09:25:14.804Z,1.80
2022-08-23T09:27:54.451Z,2.58
2022-08-23T09:30:23.342Z,2.00
2022-08-23T09:32:52.688Z,2.28
2022-08-23T09:35:25.591Z,2.35
2022-08-23T09:38:12.822Z,2.20
2022-08-23T09:40:48.691Z,2.30
2022-08-23T09:43:21.959Z,1.83
2022-08-23T09:46:00.172Z,2.25
2022-08-23T09:48:40.052Z,1.83
2022-08-23T09:51:23.273Z,1.60
2022-08-23T09:54:05.516Z,2.28
2022-08-23T09:56:39.733Z,2.60
2022-08-23T09:59:33.990Z,2.40
2022-08-23T10:02:18.362Z,2.25
2022-08-23T10:04:59.054Z,2.47
2022-08-23T10:07:42.748Z,2.30
2022-08-23T10:10:22.341Z,2.33
2022-08-23T10:12:52.222Z,1.70
2022-08-23T10:15:24.205Z,2.40
2022-08-23T10:18:00.560Z,2.08
2022-08-23T10:20:36.947Z,2.08
2022-08-23T10:23:20.492Z,2.05
2022-08-23T10:25:55.751Z,2.92
2022-08-23T10:28:56.527Z,1.80
2022-08-23T10:31:35.794Z,1.73
2022-08-23T10:34:23.463Z,1.73
2022-08-23T10:37:00.931Z,1.70
2022-08-23T10:39:31.939Z,2.15
2022-08-23T10:42:06.692Z,2.55
2022-08-23T10:44:41.202Z,2.50
2022-08-23T10:47:21.878Z,2.53
2022-08-23T10:49:52.096Z,2.10
2022-08-23T10:52:24.518Z,1.90
2022-08-23T10:55:06.293Z,2.40
2022-08-23T10:57:38.855Z,2.25
2022-08-23T11:00:09.500Z,2.17
2022-08-23T11:02:51.499Z,2.42
2022-08-23T11:05:31.670Z,1.70
2022-08-23T11:08:06.204Z,1.73
2022-08-23T11:10:55.936Z,2.20
2022-08-23T11:13:29.815Z,2.58
2022-08-23T11:16:00.968Z,2.00
2022-08-23T11:18:41.958Z,2.03
2022-08-23T11:21:31.579Z,1.77
2022-08-23T11:24:30.420Z,1.70
2022-08-23T11:27:07.518Z,1.95
2022-08-23T11:29:44.012Z,2.03
2022-08-23T11:32:43.009Z,2.10
2022-08-23T11:35:37.017Z,2.47
2022-08-23T11:38:11.937Z,1.88
2022-08-23T11:41:22.324Z,1.88
2022-08-23T11:44:23.963Z,1.63
2022-08-23T11:47:01.277Z,1.70
2022-08-23T11:50:09.107Z,1.45
2022-08-23T11:52:58.114Z,1.95
2022-08-23T11:55:50.272Z,1.75
2022-08-23T11:58:24.315Z,1.70
2022-08-23T12:01:07.523Z,1.80
2022-08-23T12:03:56.279Z,1.65
2022-08-23T12:06:42.136Z,1.75
2022-08-23T12:09:36.962Z,1.85
2022-08-23T12:12:24.484Z,1.77
2022-08-23T12:14:57.026Z,1.45
2022-08-23T12:18:13.130Z,2.10
2022-08-23T12:20:42.505Z,1.92
2022-08-23T12:23:21.792Z,1.63
2022-08-23T12:26:08.038Z,1.73
2022-08-23T12:28:43.353Z,1.90
2022-08-23T12:31:21.167Z,2.03
2022-08-23T12:34:02.428Z,1.83
2022-08-23T12:36:39.988Z,2.05
2022-08-23T12:39:15.750Z,1.63
2022-08-23T12:41:53.954Z,2.00
2022-08-23T12:44:24.318Z,1.48
2022-08-23T12:46:53.128Z,1.42
2022-08-23T12:49:28.868Z,1.85
2022-08-23T12:52:01.112Z,1.60
2022-08-23T12:54:37.276Z,1.60
2022-08-23T12:57:11.828Z,1.60
2022-08-23T12:59:45.264Z,1.50
2022-08-23T13:02:19.296Z,1.35
2022-08-23T13:04:48.758Z,1.65
2022-08-23T13:07:22.127Z,1.83
2022-08-23T13:09:53.312Z,1.58
2022-08-23T13:12:24.042Z,1.33
2022-08-23T13:14:54.887Z,1.80
2022-08-23T13:17:32.799Z,1.35
2022-08-23T13:20:21.928Z,1.75
2022-08-23T13:23:03.452Z,2.10
2022-08-23T13:25:35.508Z,2.28
2022-08-23T13:28:07.306Z,2.03
2022-08-23T13:30:37.621Z,1.80
2022-08-23T13:33:20.760Z,2.25
2022-08-23T13:35:51.331Z,1.92
2022-08-23T13:38:23.667Z,2.00
2022-08-23T13:41:02.932Z,1.65
2022-08-23T13:43:36.930Z,1.60
2022-08-23T13:46:15.657Z,1.73
2022-08-23T13:48:51.610Z,1.80
2022-08-23T13:51:28.045Z,1.58
2022-08-23T13:53:57.966Z,1.70
2022-08-23T13:56:26.846Z,1.90
2022-08-23T13:58:57.584Z,2.10
2022-08-23T14:01:26.178Z,1.40
2022-08-23T14:03:54.625Z,1.90
2022-08-23T14:06:25.499Z,1.70
2022-08-23T14:08:53.752Z,1.58
2022-08-23T14:11:21.979Z,1.90
2022-08-23T14:13:51.033Z,1.50
2022-08-23T14:16:40.583Z,1.60
2022-08-23T14:19:54.635Z,1.35
2022-08-23T14:22:01.060Z,1.92
2022-08-23T14:24:29.623Z,2.17
2022-08-23T14:26:58.748Z,1.40
2022-08-23T14:29:29.044Z,1.27
2022-08-23T14:31:59.409Z,1.67
2022-08-23T14:34:28.405Z,1.80
2022-08-23T14:39:46.624Z,2.03
2022-08-23T14:42:17.755Z,1.92
2022-08-23T14:44:45.941Z,1.63
2022-08-23T14:47:14.146Z,1.45
2022-08-23T14:49:42.372Z,1.48
2022-08-23T14:52:11.244Z,2.00
2022-08-23T14:54:39.655Z,2.35
2022-08-23T14:57:09.201Z,2.05
2022-08-23T14:59:37.298Z,1.90
2022-08-23T15:02:07.244Z,1.60
2022-08-23T15:04:35.697Z,2.05
2022-08-23T15:07:17.586Z,2.13
2022-08-23T15:09:47.085Z,1.95
2022-08-23T15:15:07.871Z,1.77
2022-08-23T15:17:38.584Z,1.70
2022-08-23T15:20:07.791Z,1.60
2022-08-23T15:22:39.913Z,1.60
2022-08-23T15:25:13.178Z,1.30
2022-08-23T15:27:43.140Z,1.60
2022-08-23T15:30:13.203Z,1.55
2022-08-23T15:32:52.297Z,1.67
2022-08-23T15:35:25.123Z,1.20
2022-08-23T15:37:55.740Z,1.60
2022-08-23T15:40:25.718Z,1.38
2022-08-23T15:42:55.505Z,1.52
2022-08-23T15:45:23.980Z,1.20
2022-08-23T15:47:55.022Z,3.10
2022-08-23T15:50:25.828Z,1.50
2022-08-23T15:52:55.098Z,1.15
2022-08-23T15:55:25.617Z,1.17
2022-08-23T15:57:58.127Z,1.80
2022-08-23T16:00:28.085Z,1.40
2022-08-23T16:03:20.643Z,1.38
2022-08-23T16:05:46.982Z,1.70
2022-08-23T16:08:20.810Z,1.95
2022-08-23T16:10:48.990Z,1.58
2022-08-23T16:13:18.866Z,1.60
2022-08-23T16:15:47.327Z,1.27
2022-08-23T16:18:15.799Z,2.13
2022-08-23T16:20:44.538Z,1.60
2022-08-23T16:23:13.438Z,1.42
2022-08-23T16:25:41.782Z,1.40
2022-08-23T16:28:10.170Z,1.45
2022-08-23T16:30:39.625Z,1.10
2022-08-23T16:33:07.841Z,1.70
2022-08-23T16:35:36.034Z,1.20
2022-08-23T16:38:04.198Z,1.10
2022-08-23T16:40:32.451Z,1.40
2022-08-23T16:43:00.864Z,1.85
2022-08-23T16:45:29.097Z,1.52
2022-08-23T16:47:58.581Z,1.63
2022-08-23T16:50:27.054Z,2.25
2022-08-23T16:52:55.196Z,2.50
2022-08-23T16:55:24.387Z,1.73
2022-08-23T16:57:52.790Z,1.90
2022-08-23T17:00:21.185Z,2.42
2022-08-23T17:02:49.927Z,2.30
2022-08-23T17:05:20.528Z,1.95
2022-08-23T17:07:49.212Z,2.08
2022-08-23T17:10:19.494Z,2.55
2022-08-23T17:12:52.929Z,1.90
2022-08-23T17:15:25.906Z,3.22
2022-08-23T17:17:54.497Z,1.90
2022-08-23T17:20:27.241Z,1.60
2022-08-23T17:22:55.586Z,1.42
2022-08-23T17:25:24.355Z,1.75
2022-08-23T17:27:54.343Z,1.70
2022-08-23T17:30:24.258Z,1.73
2022-08-23T17:32:53.955Z,2.05
2022-08-23T17:35:25.626Z,1.80
2022-08-23T17:37:54.904Z,1.80
2022-08-23T17:40:26.339Z,2.30
2022-08-23T17:42:54.493Z,2.22
2022-08-23T17:45:22.951Z,2.13
2022-08-23T17:47:51.119Z,1.75
2022-08-23T17:50:19.915Z,1.75
2022-08-23T17:52:50.794Z,2.38
2022-08-23T17:55:19.331Z,1.70
2022-08-23T17:57:49.288Z,1.83
2022-08-23T18:00:20.598Z,1.90
2022-08-23T18:02:49.372Z,2.33
2022-08-23T18:05:17.728Z,2.38
2022-08-23T18:07:46.195Z,4.88
2022-08-23T18:10:15.701Z,7.28
2022-08-23T18:12:43.888Z,7.18
2022-08-23T18:15:13.353Z,4.70
2022-08-23T18:17:41.841Z,3.38
2022-08-23T18:20:12.532Z,2.20
2022-08-23T18:22:40.849Z,2.30
2022-08-23T18:25:13.258Z,2.67
2022-08-23T18:28:00.110Z,2.17
2022-08-23T18:30:28.524Z,1.90
2022-08-23T18:32:57.408Z,2.47
2022-08-23T18:35:29.228Z,2.80
2022-08-23T18:37:58.006Z,2.10
2022-08-23T18:40:26.625Z,2.65
2022-08-23T18:42:56.513Z,2.47
2022-08-23T18:45:24.981Z,2.58
2022-08-23T18:47:53.124Z,2.72
2022-08-23T18:50:21.278Z,2.58
2022-08-23T18:52:49.423Z,2.63
2022-08-23T18:55:20.087Z,2.65
2022-08-23T18:57:48.268Z,2.22
2022-08-23T19:00:17.935Z,2.45
2022-08-23T19:02:46.203Z,2.70
2022-08-23T19:05:14.378Z,2.45
2022-08-23T19:07:42.505Z,2.28
2022-08-23T19:10:11.412Z,2.50
2022-08-23T19:12:39.545Z,2.10
2022-08-23T19:15:21.880Z,2.10
2022-08-23T19:17:50.011Z,2.10
2022-08-23T19:20:19.208Z,3.15
2022-08-23T19:22:47.763Z,2.58
2022-08-23T19:25:16.089Z,2.55
2022-08-23T19:27:44.282Z,2.53
2022-08-23T19:30:13.895Z,2.25
2022-08-23T19:32:48.323Z,2.50
2022-08-23T19:35:16.802Z,2.67
2022-08-23T19:37:44.964Z,2.40
2022-08-23T19:40:14.936Z,2.30
2022-08-23T19:42:43.139Z,2.70
2022-08-23T19:45:12.186Z,2.15
2022-08-23T19:47:40.695Z,2.20
2022-08-23T19:50:11.413Z,2.25
2022-08-23T19:52:40.147Z,2.53
2022-08-23T19:55:11.046Z,2.47
2022-08-23T19:57:39.671Z,2.47
2022-08-23T20:00:19.399Z,2.53
2022-08-23T20:02:48.144Z,2.60
2022-08-23T20:05:18.369Z,2.72
2022-08-23T20:07:47.154Z,2.42
2022-08-23T20:10:17.232Z,2.53
2022-08-23T20:12:45.424Z,2.75
2022-08-23T20:15:14.451Z,2.50
2022-08-23T20:17:42.656Z,2.50
2022-08-23T20:20:13.671Z,2.38
2022-08-23T20:23:01.326Z,2.28
2022-08-23T20:25:30.589Z,2.58
2022-08-23T20:27:59.281Z,2.15
2022-08-23T20:30:27.413Z,2.30
2022-08-23T20:32:55.696Z,2.40
2022-08-23T20:35:24.031Z,2.30
2022-08-23T20:37:53.541Z,2.50
2022-08-23T20:40:23.067Z,2.50
2022-08-23T20:42:52.328Z,2.47
2022-08-23T20:45:20.776Z,2.53
2022-08-23T20:47:48.997Z,2.28
2022-08-23T20:50:17.353Z,2.30
2022-08-23T20:52:45.518Z,2.85
2022-08-23T20:55:16.477Z,2.00
2022-08-23T20:57:44.594Z,2.25
2022-08-23T21:00:13.802Z,2.15
2022-08-23T21:02:42.018Z,2.63
2022-08-23T21:05:10.671Z,2.83
2022-08-23T21:07:38.784Z,2.63
2022-08-23T21:10:07.498Z,2.38
2022-08-23T21:12:37.018Z,3.10
2022-08-23T21:15:10.212Z,2.28
2022-08-23T21:17:39.004Z,2.92
2022-08-23T21:20:08.127Z,2.15
2022-08-23T21:22:36.402Z,2.28
2022-08-23T21:25:04.950Z,2.38
2022-08-23T21:27:33.204Z,2.60
2022-08-23T21:30:02.942Z,2.53
2022-08-23T21:32:31.028Z,2.25
2022-08-23T21:34:59.365Z,2.40
2022-08-23T21:37:28.199Z,2.58
2022-08-23T21:39:56.553Z,2.15
2022-08-23T21:42:25.979Z,2.25
2022-08-23T21:44:54.585Z,2.33
2022-08-23T21:47:24.536Z,2.42
2022-08-23T21:49:53.026Z,2.15
2022-08-23T21:52:21.454Z,2.75
2022-08-23T21:54:49.568Z,2.85
2022-08-23T21:57:17.695Z,2.38
2022-08-23T21:59:45.832Z,2.45
2022-08-23T22:02:13.926Z,2.42
2022-08-23T22:04:43.475Z,2.20
2022-08-23T22:07:12.231Z,2.40
2022-08-23T22:09:40.469Z,2.22
2022-08-23T22:12:09.562Z,2.15
2022-08-23T22:14:37.747Z,2.47
2022-08-23T22:17:06.433Z,2.92
2022-08-23T22:19:34.573Z,2.33
2022-08-23T22:22:04.879Z,2.47
2022-08-23T22:24:33.092Z,2.63
2022-08-23T22:27:01.239Z,2.65
2022-08-23T22:29:29.397Z,2.20
2022-08-23T22:31:57.512Z,2.33
2022-08-23T22:34:25.619Z,2.58
2022-08-23T22:36:55.846Z,2.20
2022-08-23T22:39:25.524Z,2.40
2022-08-23T22:41:54.208Z,2.13
2022-08-23T22:44:22.556Z,2.30
2022-08-23T22:46:50.683Z,2.47
2022-08-23T22:49:18.790Z,2.25
2022-08-23T22:51:46.943Z,2.40
2022-08-23T22:54:20.362Z,2.13
2022-08-23T22:56:51.679Z,2.60
2022-08-23T22:59:21.648Z,2.33
2022-08-23T23:01:56.061Z,2.00
2022-08-23T23:04:26.525Z,2.33
2022-08-23T23:06:55.481Z,2.70
2022-08-23T23:09:23.929Z,2.45
2022-08-23T23:11:54.698Z,2.17
2022-08-23T23:14:23.904Z,2.10
2022-08-23T23:16:53.200Z,2.13
2022-08-23T23:19:39.122Z,2.03
2022-08-23T23:22:09.461Z,2.60
2022-08-23T23:24:39.896Z,2.50
2022-08-23T23:27:10.337Z,2.30
2022-08-23T23:29:38.514Z,2.13
2022-08-23T23:32:07.016Z,1.85
2022-08-23T23:34:36.458Z,2.35
2022-08-23T23:37:04.911Z,2.00
2022-08-23T23:39:33.048Z,2.10
2022-08-23T23:42:01.544Z,2.35
2022-08-23T23:44:32.104Z,2.10
2022-08-23T23:47:01.222Z,2.25
2022-08-23T23:49:32.805Z,2.00
2022-08-23T23:52:02.781Z,2.28
2022-08-23T23:54:31.610Z,2.35
2022-08-23T23:57:00.143Z,2.40
2022-08-23T23:59:28.503Z,2.50
